Aérodrome :
LOGIN :

S'inscrire | Disclaimer

   EN    FR    IT 

 










Légende :    VFR   VFR Marginal   IFR   IFR Intensif   IFR Très Intensif
Visi : 
Plafond : 
>= 8 km
>= 3000ft
5 à 8 km
1000 à 3000 ft
1500m à 5 km
500 à 1000 ft
800 à 1500m
200 à 500 ft
< 800m
< 200 ft
Symboles :   Orages  Brouillard  Fortes neiges  Fortes précipitations  Vent > 20 kt
SIGMETs :   Divers  Orages  Givrage  Turbulence  Onde Orograph.  Cendres Volcan.






- Altitude de l'aérodrome : 256 ft
- Code IATA : KUN


EYKA - Kaunas

DERNIER METAR :
  • 180220Z 21007KT 160V250 CAVOK 04/M00 Q1009

METARs EXPIRÉS :
  • 180150Z 22006KT 160V250 CAVOK 04/M00 Q1009
  • 180120Z AUTO 21008KT 170V250 9999 NCD 04/M00 Q1009
  • 180050Z AUTO 22007KT 9999 NCD 04/M00 Q1009
  • 180020Z AUTO 21006KT 9999 NCD 04/M00 Q1009
  • 172350Z AUTO 22007KT 200V260 9999 NCD 04/M00 Q1010

TAF TAF EYKA
Valide du 18 à 00h jusqu'au 19 à 00h UTC


172303Z 1800/1824 22012KT 9000 NSC
BECMG 1807/1809 BKN025
TEMPO 1809/1818 25018G28KT 3000 SHRA BKN005 BKN015CB



MET'MAP, la Météo Aéronautique d'un coup d'oeil ! - Copyright ORBIFLY Décembre 2007 - Disclaimer

ORBIFLY MET'MAP TEAM :

Programmation & Développement : Alexandra Zaïnal
Sur une idée originale de : Baudouin d'Aumeries
Assistance à la programmation : Marc-Olivier Méhu
Soutien technique & logistique : Manuel Goepfert

Contact : metmap@orbifly.com




SOURCES & CREDITS :

   NOAA